createdAt,value
2022-09-09T00:02:03.904Z,14.60
2022-09-09T00:04:40.595Z,14.50
2022-09-09T00:07:24.683Z,14.50
2022-09-09T00:10:06.270Z,14.40
2022-09-09T00:12:51.685Z,14.40
2022-09-09T00:15:31.860Z,14.30
2022-09-09T00:18:03.586Z,14.30
2022-09-09T00:20:52.374Z,14.30
2022-09-09T00:23:31.585Z,14.30
2022-09-09T00:26:17.327Z,14.30
2022-09-09T00:29:00.211Z,14.40
2022-09-09T00:31:31.424Z,14.30
2022-09-09T00:34:17.724Z,14.30
2022-09-09T00:36:46.535Z,14.20
2022-09-09T00:39:53.130Z,14.30
2022-09-09T00:42:44.344Z,14.40
2022-09-09T00:45:43.598Z,14.30
2022-09-09T00:48:17.594Z,14.30
2022-09-09T00:50:58.306Z,14.20
2022-09-09T00:53:30.991Z,14.10
2022-09-09T00:56:25.138Z,14.10
2022-09-09T00:59:20.508Z,14.00
2022-09-09T01:01:47.399Z,14.00
2022-09-09T01:04:30.000Z,14.00
2022-09-09T01:07:04.858Z,14.00
2022-09-09T01:09:57.004Z,14.00
2022-09-09T01:12:32.881Z,14.10
2022-09-09T01:15:17.766Z,14.10
2022-09-09T01:18:11.429Z,14.10
2022-09-09T01:21:12.769Z,14.10
2022-09-09T01:24:05.413Z,14.00
2022-09-09T01:26:43.068Z,14.00
2022-09-09T01:29:19.383Z,13.90
2022-09-09T01:31:56.996Z,13.90
2022-09-09T01:34:27.974Z,14.00
2022-09-09T01:37:06.745Z,13.90
2022-09-09T01:39:35.377Z,14.00
2022-09-09T01:42:08.957Z,13.90
2022-09-09T01:44:37.163Z,14.00
2022-09-09T01:47:06.300Z,14.00
2022-09-09T01:49:36.321Z,14.00
2022-09-09T01:52:11.087Z,13.80
2022-09-09T01:54:41.034Z,13.80
2022-09-09T01:57:36.275Z,13.90
2022-09-09T02:00:12.057Z,14.00
2022-09-09T02:03:19.159Z,14.00
2022-09-09T02:06:10.437Z,14.00
2022-09-09T02:08:51.195Z,14.00
2022-09-09T02:11:23.890Z,14.00
2022-09-09T02:14:17.634Z,14.00
2022-09-09T02:17:11.093Z,14.00
2022-09-09T02:20:09.566Z,13.90
2022-09-09T02:22:50.452Z,14.00
2022-09-09T02:25:22.981Z,14.00
2022-09-09T02:27:52.700Z,13.90
2022-09-09T02:30:21.468Z,13.80
2022-09-09T02:33:00.212Z,13.80
2022-09-09T02:36:02.703Z,13.80
2022-09-09T02:38:36.262Z,13.80
2022-09-09T02:41:09.702Z,13.70
2022-09-09T02:43:38.172Z,13.80
2022-09-09T02:46:32.741Z,13.90
2022-09-09T02:49:04.560Z,13.90
2022-09-09T02:51:53.691Z,13.90
2022-09-09T02:54:40.081Z,13.90
2022-09-09T02:57:24.331Z,13.80
2022-09-09T02:59:53.094Z,13.80
2022-09-09T03:02:20.364Z,13.80
2022-09-09T03:04:54.692Z,13.90
2022-09-09T03:07:22.025Z,13.90
2022-09-09T03:09:51.908Z,13.90
2022-09-09T03:12:18.796Z,13.90
2022-09-09T03:14:46.930Z,13.90
2022-09-09T03:17:14.625Z,13.90
2022-09-09T03:19:50.537Z,13.90
2022-09-09T03:22:17.579Z,13.80
2022-09-09T03:24:47.926Z,13.80
2022-09-09T03:27:18.444Z,13.70
2022-09-09T03:29:46.134Z,13.70
2022-09-09T03:32:19.417Z,13.60
2022-09-09T03:34:50.555Z,13.70
2022-09-09T03:37:18.790Z,13.70
2022-09-09T03:39:46.526Z,13.70
2022-09-09T03:42:19.710Z,13.80
2022-09-09T03:44:53.488Z,13.80
2022-09-09T03:47:25.027Z,13.90
2022-09-09T03:49:56.522Z,13.80
2022-09-09T03:52:25.998Z,13.70
2022-09-09T03:54:55.391Z,13.70
2022-09-09T03:57:22.685Z,13.90
2022-09-09T03:59:50.885Z,13.90
2022-09-09T04:02:18.299Z,13.90
2022-09-09T04:04:45.154Z,13.90
2022-09-09T04:07:12.892Z,13.90
2022-09-09T04:09:40.499Z,13.90
2022-09-09T04:12:07.744Z,13.80
2022-09-09T04:14:35.358Z,13.80
2022-09-09T04:17:07.149Z,13.80
2022-09-09T04:19:34.247Z,13.90
2022-09-09T04:22:02.067Z,13.90
2022-09-09T04:24:31.096Z,13.90
2022-09-09T04:26:59.888Z,13.80
2022-09-09T04:29:26.991Z,13.80
2022-09-09T04:31:54.355Z,13.80
2022-09-09T04:34:21.258Z,13.90
2022-09-09T04:36:48.456Z,13.90
2022-09-09T04:39:15.606Z,13.90
2022-09-09T04:41:42.529Z,13.90
2022-09-09T04:44:13.635Z,13.90
2022-09-09T04:46:43.261Z,13.80
2022-09-09T04:49:15.217Z,13.80
2022-09-09T04:51:43.970Z,13.80
2022-09-09T04:54:11.200Z,13.80
2022-09-09T04:56:44.400Z,13.90
2022-09-09T04:59:12.271Z,13.90
2022-09-09T05:01:47.676Z,13.80
2022-09-09T05:04:18.113Z,13.80
2022-09-09T05:06:45.253Z,13.80
2022-09-09T05:09:13.290Z,13.80
2022-09-09T05:11:40.187Z,13.70
2022-09-09T05:14:16.226Z,13.80
2022-09-09T05:16:48.379Z,13.90
2022-09-09T05:19:20.090Z,13.80
2022-09-09T05:21:58.379Z,13.80
2022-09-09T05:24:34.295Z,13.90
2022-09-09T05:27:03.352Z,13.90
2022-09-09T05:29:30.564Z,13.90
2022-09-09T05:32:00.201Z,13.80
2022-09-09T05:34:27.038Z,13.80
2022-09-09T05:36:54.697Z,13.80
2022-09-09T05:39:26.274Z,13.80
2022-09-09T05:41:53.174Z,13.90
2022-09-09T05:44:20.479Z,13.80
2022-09-09T05:46:48.585Z,13.90
2022-09-09T05:49:18.302Z,13.90
2022-09-09T05:51:45.740Z,13.80
2022-09-09T05:54:17.556Z,13.80
2022-09-09T05:56:51.975Z,13.80
2022-09-09T05:59:19.733Z,13.80
2022-09-09T06:01:48.059Z,13.80
2022-09-09T06:04:25.880Z,13.80
2022-09-09T06:06:58.302Z,13.80
2022-09-09T06:09:26.154Z,13.70
2022-09-09T06:11:53.070Z,13.70
2022-09-09T06:14:22.825Z,13.80
2022-09-09T06:16:51.948Z,13.80
2022-09-09T06:19:22.052Z,13.80
2022-09-09T06:21:50.066Z,13.80
2022-09-09T06:24:18.450Z,13.90
2022-09-09T06:26:46.902Z,13.90
2022-09-09T06:29:19.601Z,13.90
2022-09-09T06:31:46.641Z,13.90
2022-09-09T06:34:17.101Z,13.90
2022-09-09T06:36:48.528Z,13.90
2022-09-09T06:39:16.512Z,13.90
2022-09-09T06:41:44.173Z,13.90
2022-09-09T06:44:44.111Z,14.00
2022-09-09T06:47:16.488Z,13.90
2022-09-09T06:49:48.244Z,13.90
2022-09-09T06:52:15.574Z,13.90
2022-09-09T06:54:44.063Z,13.90
2022-09-09T07:00:01.335Z,14.00
2022-09-09T07:02:28.281Z,14.10
2022-09-09T07:04:55.177Z,14.10
2022-09-09T07:07:22.044Z,14.10
2022-09-09T07:09:50.305Z,14.10
2022-09-09T07:12:17.600Z,14.10
2022-09-09T07:14:52.222Z,14.10
2022-09-09T07:17:20.589Z,14.00
2022-09-09T07:19:48.581Z,14.00
2022-09-09T07:22:17.174Z,14.00
2022-09-09T07:24:46.720Z,14.10
2022-09-09T07:27:15.129Z,14.10
2022-09-09T07:29:42.566Z,14.10
2022-09-09T07:32:10.581Z,14.00
2022-09-09T07:34:38.650Z,14.20
2022-09-09T07:37:06.310Z,14.20
2022-09-09T07:39:34.187Z,14.20
2022-09-09T07:42:02.194Z,14.20
2022-09-09T07:44:33.278Z,14.10
2022-09-09T07:47:10.970Z,14.20
2022-09-09T07:49:43.471Z,14.20
2022-09-09T07:52:14.953Z,14.20
2022-09-09T07:54:48.486Z,14.20
2022-09-09T07:57:19.518Z,14.30
2022-09-09T07:59:51.912Z,14.30
2022-09-09T08:02:19.609Z,14.20
2022-09-09T08:04:49.804Z,14.20
2022-09-09T08:07:21.006Z,14.10
2022-09-09T08:09:53.309Z,14.10
2022-09-09T08:12:25.153Z,14.20
2022-09-09T08:14:55.756Z,14.30
2022-09-09T08:17:25.331Z,14.30
2022-09-09T08:19:52.401Z,14.30
2022-09-09T08:22:25.439Z,14.50
2022-09-09T08:24:53.490Z,14.40
2022-09-09T08:27:25.027Z,14.50
2022-09-09T08:29:57.563Z,14.50
2022-09-09T08:32:25.766Z,14.50
2022-09-09T08:34:54.628Z,14.60
2022-09-09T08:37:23.956Z,14.50
2022-09-09T08:39:56.306Z,14.50
2022-09-09T08:42:35.551Z,14.50
2022-09-09T08:46:12.940Z,14.50
2022-09-09T08:49:10.923Z,14.50
2022-09-09T08:51:41.421Z,14.60
2022-09-09T08:54:11.002Z,14.50
2022-09-09T08:56:40.370Z,14.50
2022-09-09T08:59:14.882Z,14.60
2022-09-09T09:02:11.353Z,14.60
2022-09-09T09:04:47.800Z,14.70
2022-09-09T09:07:32.697Z,14.70
2022-09-09T09:10:40.571Z,14.70
2022-09-09T09:13:28.815Z,14.70
2022-09-09T09:16:21.472Z,14.70
2022-09-09T09:18:50.195Z,14.70
2022-09-09T09:21:41.685Z,14.60
2022-09-09T09:24:32.197Z,14.60
2022-09-09T09:27:14.541Z,14.60
2022-09-09T09:30:10.819Z,14.60
2022-09-09T09:32:42.382Z,14.60
2022-09-09T09:35:14.963Z,14.70
2022-09-09T09:40:59.701Z,14.80
2022-09-09T09:43:40.710Z,14.90
2022-09-09T09:46:26.758Z,15.00
2022-09-09T09:49:01.955Z,15.00
2022-09-09T09:51:33.391Z,15.00
2022-09-09T09:54:44.803Z,15.00
2022-09-09T09:57:13.522Z,15.00
2022-09-09T09:59:49.579Z,15.00
2022-09-09T10:02:27.672Z,15.10
2022-09-09T10:05:14.288Z,15.00
2022-09-09T10:08:03.348Z,15.00
2022-09-09T10:11:22.111Z,15.10
2022-09-09T10:14:25.384Z,15.10
2022-09-09T10:17:14.230Z,15.10
2022-09-09T10:19:47.222Z,15.10
2022-09-09T10:22:30.994Z,15.00
2022-09-09T10:25:30.921Z,15.00
2022-09-09T10:28:26.082Z,14.90
2022-09-09T10:31:16.307Z,14.90
2022-09-09T10:34:22.341Z,14.90
2022-09-09T10:36:52.001Z,14.90
2022-09-09T10:39:39.123Z,14.90
2022-09-09T10:42:18.207Z,15.00
2022-09-09T10:45:24.799Z,15.00
2022-09-09T10:47:52.460Z,15.00
2022-09-09T10:50:57.235Z,15.10
2022-09-09T10:53:27.198Z,15.10
2022-09-09T10:56:01.680Z,15.10
2022-09-09T10:58:33.938Z,15.20
2022-09-09T11:01:08.845Z,15.20
2022-09-09T11:03:41.792Z,15.30
2022-09-09T11:06:21.935Z,15.30
2022-09-09T11:08:53.777Z,15.20
2022-09-09T11:11:40.375Z,15.20
2022-09-09T11:14:35.313Z,15.30
2022-09-09T11:17:26.622Z,15.30
2022-09-09T11:19:53.692Z,15.30
2022-09-09T11:22:28.560Z,15.30
2022-09-09T11:24:58.486Z,15.40
2022-09-09T11:27:32.913Z,15.30
2022-09-09T11:30:51.280Z,15.30
2022-09-09T11:33:17.568Z,15.30
2022-09-09T11:36:11.149Z,15.30
2022-09-09T11:38:58.503Z,15.30
2022-09-09T11:41:41.850Z,15.30
2022-09-09T11:44:21.711Z,15.30
2022-09-09T11:46:52.446Z,15.40
2022-09-09T11:49:50.625Z,15.40
2022-09-09T11:52:38.803Z,15.50
2022-09-09T11:55:34.863Z,15.50
2022-09-09T11:58:24.915Z,15.50
2022-09-09T12:00:55.688Z,15.60
2022-09-09T12:03:50.354Z,15.60
2022-09-09T12:06:33.830Z,15.60
2022-09-09T12:12:25.237Z,15.50
2022-09-09T12:15:08.181Z,15.50
2022-09-09T12:17:51.574Z,15.40
2022-09-09T12:20:38.165Z,15.40
2022-09-09T12:23:32.451Z,15.40
2022-09-09T12:26:46.139Z,15.40
2022-09-09T12:29:31.735Z,15.40
2022-09-09T12:32:20.987Z,15.40
2022-09-09T12:35:21.426Z,15.50
2022-09-09T12:37:58.177Z,15.50
2022-09-09T12:40:32.086Z,15.50
2022-09-09T12:43:08.463Z,15.60
2022-09-09T12:45:38.067Z,15.50
2022-09-09T12:48:18.201Z,15.50
2022-09-09T12:50:58.138Z,15.50
2022-09-09T12:53:42.450Z,15.50
2022-09-09T12:56:24.941Z,15.50
2022-09-09T12:59:02.630Z,15.60
2022-09-09T13:01:39.616Z,15.60
2022-09-09T13:04:29.396Z,15.50
2022-09-09T13:07:08.752Z,15.60
2022-09-09T13:09:42.044Z,15.50
2022-09-09T13:12:20.909Z,15.50
2022-09-09T13:14:57.148Z,15.40
2022-09-09T13:17:30.118Z,15.30
2022-09-09T13:20:00.122Z,15.30
2022-09-09T13:22:38.471Z,15.30
2022-09-09T13:25:14.480Z,15.30
2022-09-09T13:27:57.902Z,15.30
2022-09-09T13:30:41.524Z,15.30
2022-09-09T13:33:14.539Z,15.30
2022-09-09T13:35:54.852Z,15.30
2022-09-09T13:38:27.091Z,15.30
2022-09-09T13:41:05.693Z,15.30
2022-09-09T13:43:45.877Z,15.30
2022-09-09T13:46:33.624Z,15.30
2022-09-09T13:49:07.108Z,15.30
2022-09-09T13:52:08.403Z,15.30
2022-09-09T13:54:50.781Z,15.30
2022-09-09T13:57:21.503Z,15.30
2022-09-09T14:00:23.135Z,15.30
2022-09-09T14:02:52.059Z,15.30
2022-09-09T14:05:21.712Z,15.30
2022-09-09T14:07:53.204Z,15.30
2022-09-09T14:10:26.793Z,15.30
2022-09-09T14:12:54.626Z,15.30
2022-09-09T14:15:23.090Z,15.30
2022-09-09T14:17:57.612Z,15.30
2022-09-09T14:20:26.699Z,15.30
2022-09-09T14:23:03.320Z,15.30
2022-09-09T14:25:40.410Z,15.30
2022-09-09T14:28:20.449Z,15.30
2022-09-09T14:31:00.872Z,15.30
2022-09-09T14:33:43.428Z,15.30
2022-09-09T14:36:11.924Z,15.30
2022-09-09T14:41:33.189Z,15.30
2022-09-09T14:44:00.870Z,15.30
2022-09-09T14:46:28.644Z,15.30
2022-09-09T14:48:56.034Z,15.30
2022-09-09T14:51:44.530Z,15.30
2022-09-09T14:54:12.898Z,15.30
2022-09-09T14:56:42.067Z,15.30
2022-09-09T14:59:10.110Z,15.30
2022-09-09T15:01:45.553Z,15.40
2022-09-09T15:04:28.278Z,15.30
2022-09-09T15:06:55.699Z,15.30
2022-09-09T15:09:25.467Z,15.40
2022-09-09T15:12:04.055Z,15.30
2022-09-09T15:14:34.191Z,15.30
2022-09-09T15:17:04.058Z,15.40
2022-09-09T15:19:34.482Z,15.40
2022-09-09T15:22:01.565Z,15.30
2022-09-09T15:24:29.562Z,15.30
2022-09-09T15:27:01.494Z,15.40
2022-09-09T15:29:31.154Z,15.40
2022-09-09T15:32:02.507Z,15.40
2022-09-09T15:34:30.985Z,15.40
2022-09-09T15:37:03.727Z,15.40
2022-09-09T15:39:35.617Z,15.40
2022-09-09T15:42:05.807Z,15.40
2022-09-09T15:44:40.994Z,15.30
2022-09-09T15:47:08.960Z,15.30
2022-09-09T15:49:42.606Z,15.30
2022-09-09T15:52:12.617Z,15.30
2022-09-09T15:54:42.649Z,15.30
2022-09-09T15:57:18.447Z,15.30
2022-09-09T15:59:46.576Z,15.30
2022-09-09T16:02:23.992Z,15.30
2022-09-09T16:05:04.528Z,15.30
2022-09-09T16:07:31.620Z,15.20
2022-09-09T16:09:59.498Z,15.30
2022-09-09T16:12:28.889Z,15.30
2022-09-09T16:14:59.050Z,15.30
2022-09-09T16:17:27.005Z,15.30
2022-09-09T16:19:55.433Z,15.30
2022-09-09T16:22:29.055Z,15.30
2022-09-09T16:27:46.112Z,15.30
2022-09-09T16:30:19.312Z,15.30
2022-09-09T16:32:51.399Z,15.30
2022-09-09T16:35:24.243Z,15.20
2022-09-09T16:37:54.049Z,15.20
2022-09-09T16:40:21.602Z,15.10
2022-09-09T16:42:49.769Z,15.10
2022-09-09T16:45:17.824Z,15.10
2022-09-09T16:47:49.682Z,15.10
2022-09-09T16:50:21.361Z,15.10
2022-09-09T16:52:50.041Z,15.00
2022-09-09T16:55:21.503Z,15.00
2022-09-09T16:57:51.860Z,15.00
2022-09-09T17:00:38.290Z,15.00
2022-09-09T17:03:07.106Z,15.00
2022-09-09T17:05:36.943Z,15.00
2022-09-09T17:08:03.767Z,15.00
2022-09-09T17:10:31.034Z,15.00
2022-09-09T17:12:57.848Z,14.90
2022-09-09T17:15:24.834Z,14.90
2022-09-09T17:17:54.679Z,14.90
2022-09-09T17:20:21.583Z,14.90
2022-09-09T17:22:48.954Z,14.90
2022-09-09T17:25:17.900Z,14.80
2022-09-09T17:27:45.627Z,14.80
2022-09-09T17:30:17.379Z,14.80
2022-09-09T17:32:45.600Z,14.80
2022-09-09T17:35:15.658Z,14.80
2022-09-09T17:37:44.336Z,14.80
2022-09-09T17:40:21.698Z,14.80
2022-09-09T17:42:50.191Z,14.80
2022-09-09T17:45:18.180Z,14.80
2022-09-09T17:47:51.550Z,14.90
2022-09-09T17:50:19.634Z,14.90
2022-09-09T17:52:46.560Z,14.90
2022-09-09T17:58:00.959Z,14.80
2022-09-09T18:00:30.739Z,14.80
2022-09-09T18:02:58.578Z,14.90
2022-09-09T18:05:25.676Z,14.90
2022-09-09T18:07:53.854Z,14.80
2022-09-09T18:10:22.540Z,14.80
2022-09-09T18:12:50.156Z,14.80
2022-09-09T18:15:33.414Z,14.90
2022-09-09T18:18:09.444Z,14.90
2022-09-09T18:20:36.446Z,14.80
2022-09-09T18:23:10.571Z,14.80
2022-09-09T18:25:45.012Z,14.80
2022-09-09T18:28:12.378Z,14.80
2022-09-09T18:30:40.634Z,14.80
2022-09-09T18:33:08.065Z,14.70
2022-09-09T18:35:37.346Z,14.70
2022-09-09T18:38:04.830Z,14.80
2022-09-09T18:40:32.348Z,14.70
2022-09-09T18:42:59.983Z,14.70
2022-09-09T18:45:26.853Z,14.70
2022-09-09T18:47:53.876Z,14.70
2022-09-09T18:50:21.293Z,14.70
2022-09-09T18:52:49.394Z,14.70
2022-09-09T18:55:16.548Z,14.70
2022-09-09T18:57:43.736Z,14.60
2022-09-09T19:00:13.431Z,14.70
2022-09-09T19:02:40.274Z,14.70
2022-09-09T19:05:11.114Z,14.70
2022-09-09T19:07:41.396Z,14.70
2022-09-09T19:10:10.939Z,14.70
2022-09-09T19:12:40.254Z,14.60
2022-09-09T19:15:07.584Z,14.60
2022-09-09T19:17:35.817Z,14.60
2022-09-09T19:20:04.155Z,14.70
2022-09-09T19:22:34.684Z,14.60
2022-09-09T19:25:03.546Z,14.60
2022-09-09T19:27:30.928Z,14.60
2022-09-09T19:29:58.007Z,14.60
2022-09-09T19:32:52.317Z,14.60
2022-09-09T19:35:21.317Z,14.60
2022-09-09T19:37:48.160Z,14.60
2022-09-09T19:40:16.019Z,14.60
2022-09-09T19:42:49.533Z,14.60
2022-09-09T19:45:17.537Z,14.50
2022-09-09T19:47:44.386Z,14.50
2022-09-09T19:50:11.838Z,14.50
2022-09-09T19:52:38.896Z,14.50
2022-09-09T19:55:07.414Z,14.50
2022-09-09T19:57:37.169Z,14.50
2022-09-09T20:00:05.176Z,14.40
2022-09-09T20:02:40.312Z,14.40
2022-09-09T20:05:09.455Z,14.40
2022-09-09T20:07:37.841Z,14.40
2022-09-09T20:10:04.980Z,14.40
2022-09-09T20:12:34.479Z,14.40
2022-09-09T20:15:02.361Z,14.40
2022-09-09T20:17:29.447Z,14.50
2022-09-09T20:19:56.823Z,14.50
2022-09-09T20:22:23.652Z,14.40
2022-09-09T20:24:50.394Z,14.40
2022-09-09T20:27:18.300Z,14.50
2022-09-09T20:29:48.492Z,14.40
2022-09-09T20:32:15.333Z,14.40
2022-09-09T20:34:47.801Z,14.40
2022-09-09T20:37:15.227Z,14.30
2022-09-09T20:39:42.173Z,14.30
2022-09-09T20:42:09.080Z,14.30
2022-09-09T20:44:36.145Z,14.30
2022-09-09T20:47:06.642Z,14.30
2022-09-09T20:49:39.514Z,14.30
2022-09-09T20:52:09.509Z,14.30
2022-09-09T20:54:38.796Z,14.30
2022-09-09T20:57:08.361Z,14.40
2022-09-09T20:59:35.722Z,14.40
2022-09-09T21:02:03.636Z,14.40
2022-09-09T21:04:31.326Z,14.40
2022-09-09T21:06:58.223Z,14.40
2022-09-09T21:09:26.240Z,14.50
2022-09-09T21:11:53.830Z,14.50
2022-09-09T21:14:21.961Z,14.50
2022-09-09T21:16:49.626Z,14.50
2022-09-09T21:19:16.465Z,14.50
2022-09-09T21:21:46.744Z,14.50
2022-09-09T21:24:14.565Z,14.40
2022-09-09T21:26:41.392Z,14.50
2022-09-09T21:29:17.849Z,14.50
2022-09-09T21:31:44.647Z,14.40
2022-09-09T21:34:13.347Z,14.40
2022-09-09T21:36:47.598Z,14.40
2022-09-09T21:39:18.439Z,14.40
2022-09-09T21:41:48.844Z,14.40
2022-09-09T21:44:21.032Z,14.40
2022-09-09T21:46:53.978Z,14.40
2022-09-09T21:49:22.468Z,14.40
2022-09-09T21:51:52.485Z,14.40
2022-09-09T21:54:21.391Z,14.40
2022-09-09T21:56:52.775Z,14.40
2022-09-09T21:59:21.231Z,14.40
2022-09-09T22:01:56.192Z,14.40
2022-09-09T22:04:27.063Z,14.40
2022-09-09T22:06:57.991Z,14.40
2022-09-09T22:09:25.465Z,14.40
2022-09-09T22:11:53.583Z,14.40
2022-09-09T22:14:20.673Z,14.40
2022-09-09T22:16:47.507Z,14.50
2022-09-09T22:19:15.227Z,14.50
2022-09-09T22:21:42.110Z,14.40
2022-09-09T22:24:09.166Z,14.40
2022-09-09T22:26:38.471Z,14.40
2022-09-09T22:29:06.866Z,14.40
2022-09-09T22:31:38.673Z,14.30
2022-09-09T22:34:07.956Z,14.30
2022-09-09T22:36:36.956Z,14.20
2022-09-09T22:39:04.760Z,14.20
2022-09-09T22:41:32.479Z,14.20
2022-09-09T22:43:59.982Z,14.20
2022-09-09T22:46:28.908Z,14.20
2022-09-09T22:48:56.857Z,14.20
2022-09-09T22:51:23.799Z,14.30
2022-09-09T22:53:50.570Z,14.30
2022-09-09T22:56:20.562Z,14.30
2022-09-09T22:58:52.342Z,14.30
2022-09-09T23:01:21.023Z,14.20
2022-09-09T23:03:49.386Z,14.20
2022-09-09T23:06:22.570Z,14.10
2022-09-09T23:08:52.034Z,14.10
2022-09-09T23:11:21.396Z,14.10
2022-09-09T23:13:52.639Z,14.10
2022-09-09T23:16:27.642Z,14.00
2022-09-09T23:18:57.597Z,14.00
2022-09-09T23:21:26.345Z,14.00
2022-09-09T23:23:56.532Z,14.00
2022-09-09T23:26:26.516Z,14.00
2022-09-09T23:29:07.182Z,14.10
2022-09-09T23:31:38.535Z,14.10
2022-09-09T23:34:10.422Z,14.00
2022-09-09T23:36:39.437Z,14.10
2022-09-09T23:39:10.765Z,14.00
2022-09-09T23:41:38.137Z,14.00
2022-09-09T23:44:05.526Z,14.10
2022-09-09T23:46:35.418Z,14.10
2022-09-09T23:49:03.761Z,14.10
2022-09-09T23:51:33.967Z,14.10
2022-09-09T23:54:04.744Z,14.10
2022-09-09T23:56:37.758Z,14.10
2022-09-09T23:59:08.151Z,14.10
